Time;durP1;ratioP1;P1;durP2;ratioP2;P2;SDS_P1;SDS_P2;PMS_P1;PMS_P2;Temp;Humidity;BMP_temperature;BMP_pressure;BME280_temperature;BME280_humidity;BME280_pressure;Samples;Min_cycle;Max_cycle;Signal;HPM_P1;HPM_P2
2022/11/17 00:00:16;;;;;;;34.03;26.33;;;8.80;99.90;;;;;;4923208;29;20059;-88
2022/11/17 00:02:42;;;;;;;27.23;15.25;;;8.80;99.90;;;;;;4908856;29;20072;-90
2022/11/17 00:05:07;;;;;;;30.88;25.63;;;8.80;99.90;;;;;;4910128;29;20036;-91
2022/11/17 00:07:33;;;;;;;33.63;26.83;;;8.80;99.90;;;;;;4912167;29;20052;-88
2022/11/17 00:09:59;;;;;;;30.35;25.27;;;8.90;99.90;;;;;;4910873;29;20052;-88
2022/11/17 00:15:09;;;;;;;31.80;26.08;;;8.90;99.90;;;;;;4916503;29;20048;-87
2022/11/17 00:17:34;;;;;;;24.67;14.80;;;8.90;99.90;;;;;;4915750;29;20040;-93
2022/11/17 00:22:44;;;;;;;26.30;16.38;;;8.80;99.90;;;;;;4949279;28;20441;-89
2022/11/17 00:25:09;;;;;;;29.73;24.52;;;8.80;99.90;;;;;;4918009;29;20055;-85
2022/11/17 00:27:35;;;;;;;27.73;23.73;;;8.90;99.90;;;;;;4901939;29;20059;-85
2022/11/17 00:30:01;;;;;;;28.58;23.25;;;8.90;99.90;;;;;;4923048;29;20052;-85
2022/11/17 00:35:11;;;;;;;30.02;24.90;;;8.90;99.90;;;;;;4927340;29;20056;-87
2022/11/17 00:38:14;;;;;;;22.55;13.18;;;8.90;99.90;;;;;;4920345;29;20119;-87
2022/11/17 00:40:24;;;;;;;27.15;24.23;;;8.90;99.90;;;;;;4920556;29;20052;-84
2022/11/17 00:42:50;;;;;;;23.65;15.15;;;8.90;99.90;;;;;;4915275;29;20448;-86
2022/11/17 00:45:15;;;;;;;27.48;16.38;;;8.90;99.90;;;;;;4920650;29;20047;-90
2022/11/17 00:47:42;;;;;;;21.77;13.02;;;8.90;99.90;;;;;;4923554;29;20126;-84
2022/11/17 00:50:08;;;;;;;26.25;23.08;;;8.80;99.90;;;;;;4915593;29;20066;-89
2022/11/17 00:52:33;;;;;;;26.02;22.90;;;8.90;99.90;;;;;;4921134;29;20043;-87
2022/11/17 00:54:59;;;;;;;27.42;23.08;;;8.90;99.90;;;;;;4913819;29;20491;-84
2022/11/17 00:57:24;;;;;;;20.55;13.15;;;8.90;99.90;;;;;;4914860;29;20250;-87
2022/11/17 00:59:50;;;;;;;21.23;14.50;;;8.90;99.90;;;;;;4918230;29;20040;-87
2022/11/17 01:02:16;;;;;;;25.00;21.92;;;8.90;99.90;;;;;;4916300;29;20087;-86
2022/11/17 01:04:41;;;;;;;25.27;22.45;;;8.90;99.90;;;;;;4918989;29;20083;-86
2022/11/17 01:07:07;;;;;;;23.85;21.33;;;8.90;99.90;;;;;;4921777;29;20079;-88
2022/11/17 01:09:32;;;;;;;21.75;13.70;;;9.00;99.90;;;;;;4922996;29;20422;-87
2022/11/17 01:11:58;;;;;;;24.70;20.85;;;8.90;99.90;;;;;;4934574;29;20044;-88
2022/11/17 01:14:26;;;;;;;23.50;20.58;;;9.00;99.90;;;;;;4924447;29;20079;-86
2022/11/17 01:16:52;;;;;;;22.73;20.30;;;9.00;99.90;;;;;;4932705;29;20131;-84
2022/11/17 01:19:18;;;;;;;21.23;19.02;;;8.90;99.90;;;;;;4919873;29;20496;-87
2022/11/17 01:21:45;;;;;;;22.30;19.98;;;9.00;99.90;;;;;;4924003;29;20375;-86
2022/11/17 01:24:11;;;;;;;22.40;20.00;;;9.00;99.90;;;;;;4924969;29;20541;-87
2022/11/17 01:26:38;;;;;;;24.23;20.48;;;9.00;99.90;;;;;;4953542;28;20055;-88
2022/11/17 01:29:05;;;;;;;24.15;19.40;;;9.00;99.90;;;;;;4939054;29;20154;-86
2022/11/17 01:31:34;;;;;;;19.23;12.25;;;9.00;99.90;;;;;;4920648;29;20079;-85
2022/11/17 01:34:00;;;;;;;21.63;19.33;;;8.90;99.90;;;;;;4945148;28;20454;-87
2022/11/17 01:39:24;;;;;;;19.25;12.60;;;8.90;99.90;;;;;;4947163;28;20438;-87
2022/11/17 01:41:50;;;;;;;21.65;19.35;;;8.90;99.90;;;;;;4917034;29;20612;-85
2022/11/17 01:44:34;;;;;;;21.67;19.20;;;8.90;99.90;;;;;;4913084;29;20138;-85
2022/11/17 01:47:04;;;;;;;22.02;19.23;;;8.90;99.90;;;;;;4939003;29;20407;-85
2022/11/17 01:49:31;;;;;;;17.23;10.90;;;8.90;99.90;;;;;;4914268;29;20060;-85
2022/11/17 01:52:03;;;;;;;21.13;12.95;;;8.90;99.90;;;;;;4919963;29;20084;-89
2022/11/17 01:54:31;;;;;;;21.80;18.25;;;8.90;99.90;;;;;;4939508;29;20052;-90
2022/11/17 01:57:01;;;;;;;22.23;19.02;;;8.90;99.90;;;;;;4921728;29;20078;-85
2022/11/17 02:00:01;;;;;;;18.33;9.85;;;9.00;99.90;;;;;;4919840;29;20470;-86
2022/11/17 02:02:27;;;;;;;19.10;10.55;;;8.90;99.90;;;;;;4915194;29;20173;-88
2022/11/17 02:05:20;;;;;;;19.63;17.45;;;8.90;99.90;;;;;;4920387;29;20122;-86
2022/11/17 02:07:49;;;;;;;19.27;11.68;;;8.90;99.90;;;;;;4942566;28;20059;-86
2022/11/17 02:10:15;;;;;;;19.40;17.30;;;8.90;99.90;;;;;;4951478;28;20075;-87
2022/11/17 02:12:41;;;;;;;19.23;12.18;;;8.90;99.90;;;;;;4933410;29;20535;-90
2022/11/17 02:15:07;;;;;;;22.50;18.50;;;8.90;99.90;;;;;;4932569;29;20082;-86
2022/11/17 02:17:39;;;;;;;19.80;17.52;;;8.90;99.90;;;;;;4933098;29;20075;-87
2022/11/17 02:20:16;;;;;;;22.23;18.92;;;9.00;99.90;;;;;;4949784;28;20043;-86
2022/11/17 02:23:06;;;;;;;22.83;12.18;;;9.00;99.90;;;;;;4933481;29;20058;-86
2022/11/17 02:25:47;;;;;;;22.45;18.65;;;8.90;99.90;;;;;;4930362;29;20054;-85
2022/11/17 02:28:17;;;;;;;19.40;10.95;;;8.90;99.90;;;;;;4932794;28;20051;-88
2022/11/17 02:31:04;;;;;;;21.65;18.67;;;8.80;99.90;;;;;;4932689;29;20097;-85
2022/11/17 02:33:53;;;;;;;22.27;19.17;;;8.90;99.90;;;;;;4946898;29;20067;-87
2022/11/17 02:36:40;;;;;;;21.45;12.45;;;8.90;99.90;;;;;;4957241;28;20480;-90
2022/11/17 02:39:17;;;;;;;23.60;19.02;;;8.80;99.90;;;;;;4933072;29;20147;-86
2022/11/17 02:41:57;;;;;;;23.88;20.25;;;8.80;99.90;;;;;;4932268;29;20050;-85
2022/11/17 02:44:36;;;;;;;25.67;20.65;;;8.80;99.90;;;;;;4930979;29;20463;-86
2022/11/17 02:47:26;;;;;;;21.10;13.43;;;8.80;99.90;;;;;;4950784;29;20043;-86
2022/11/17 02:50:00;;;;;;;21.73;13.38;;;8.70;99.90;;;;;;4942612;28;20122;-86
2022/11/17 02:52:28;;;;;;;27.30;21.90;;;8.60;99.90;;;;;;4932415;28;20093;-86
2022/11/17 02:54:59;;;;;;;21.58;14.18;;;8.70;99.90;;;;;;4949260;28;20156;-85
2022/11/17 02:57:43;;;;;;;24.42;21.20;;;8.70;99.90;;;;;;4933156;29;20129;-86
2022/11/17 03:00:19;;;;;;;21.88;13.13;;;8.70;99.90;;;;;;4933041;29;20552;-87
2022/11/17 03:03:09;;;;;;;18.88;9.93;;;8.60;99.90;;;;;;4915772;29;20377;-86
2022/11/17 03:05:56;;;;;;;25.23;21.50;;;8.60;99.90;;;;;;4964116;28;20335;-93
2022/11/17 03:08:50;;;;;;;20.77;12.07;;;8.60;99.90;;;;;;4950224;29;20489;-90
2022/11/17 03:11:20;;;;;;;28.63;22.48;;;8.60;99.90;;;;;;4947765;28;20043;-88
2022/11/17 03:14:00;;;;;;;18.83;11.10;;;8.60;99.90;;;;;;4931536;28;20047;-85
2022/11/17 03:16:38;;;;;;;21.25;12.93;;;8.60;99.90;;;;;;4933294;29;20047;-91
2022/11/17 03:19:30;;;;;;;24.95;20.30;;;8.50;99.90;;;;;;4913735;29;20054;-89
2022/11/17 03:22:06;;;;;;;25.70;21.17;;;8.50;99.90;;;;;;4962158;28;20118;-91
2022/11/17 03:24:45;;;;;;;26.33;22.05;;;8.50;99.90;;;;;;4943585;29;20399;-91
2022/11/17 03:27:14;;;;;;;22.10;12.63;;;8.60;99.90;;;;;;4953271;29;20051;-87
2022/11/17 03:29:43;;;;;;;21.70;12.93;;;8.50;99.90;;;;;;4963616;28;20070;-85
2022/11/17 03:32:13;;;;;;;26.85;22.08;;;8.50;99.90;;;;;;4940631;29;20066;-89
2022/11/17 03:34:44;;;;;;;20.85;12.88;;;8.50;99.90;;;;;;4955425;28;20050;-91
2022/11/17 03:37:11;;;;;;;;;;;8.50;99.90;;;;;;4933814;29;20090;-89
2022/11/17 03:39:41;;;;;;;19.13;11.35;;;8.40;99.90;;;;;;4948611;28;19919;-86
2022/11/17 03:42:17;;;;;;;21.70;12.65;;;8.40;99.90;;;;;;4959493;28;20039;-88
2022/11/17 03:44:48;;;;;;;19.00;12.63;;;8.40;99.90;;;;;;4950709;29;20409;-87
2022/11/17 03:47:16;;;;;;;18.98;10.48;;;8.40;99.90;;;;;;4934066;29;20039;-87
2022/11/17 03:50:12;;;;;;;23.25;19.90;;;8.40;99.90;;;;;;4951705;29;20047;-90
2022/11/17 03:52:38;;;;;;;23.23;19.10;;;8.40;99.90;;;;;;4961934;28;20066;-88
2022/11/17 03:55:05;;;;;;;23.55;19.77;;;8.40;99.90;;;;;;4932091;29;20039;-89
2022/11/17 03:57:33;;;;;;;24.27;19.55;;;8.50;99.90;;;;;;4947478;28;20039;-90
2022/11/17 04:00:11;;;;;;;22.40;19.65;;;8.50;99.90;;;;;;4934104;29;20114;-89
2022/11/17 04:02:43;;;;;;;21.75;19.00;;;8.40;99.90;;;;;;4953163;28;20054;-90
2022/11/17 04:05:10;;;;;;;23.20;18.80;;;8.50;99.90;;;;;;4948549;29;20484;-87
2022/11/17 04:07:45;;;;;;;20.90;10.90;;;8.50;99.90;;;;;;4932462;29;20066;-90
2022/11/17 04:10:14;;;;;;;16.65;10.25;;;8.40;99.90;;;;;;4948250;28;20046;-90
2022/11/17 04:18:09;;;;;;;16.73;9.43;;;8.40;99.90;;;;;;4948464;28;20130;-87
2022/11/17 04:20:35;;;;;;;22.20;17.73;;;8.30;99.90;;;;;;4932906;29;20139;-91
2022/11/17 04:23:06;;;;;;;17.63;9.85;;;8.40;99.90;;;;;;4932829;28;20517;-92
2022/11/17 04:28:37;;;;;;;22.73;17.60;;;8.30;99.90;;;;;;4949161;29;20063;-91
2022/11/17 04:31:13;;;;;;;18.60;11.55;;;8.30;99.90;;;;;;4952210;29;20122;-87
2022/11/17 04:33:44;;;;;;;15.43;10.23;;;8.30;99.90;;;;;;4933236;29;20055;-86
2022/11/17 04:36:12;;;;;;;14.47;8.00;;;8.30;99.90;;;;;;4948728;29;20039;-90
2022/11/17 04:38:42;;;;;;;21.48;17.33;;;8.30;99.90;;;;;;4946899;28;20043;-91
2022/11/17 04:43:54;;;;;;;20.00;16.58;;;8.30;99.90;;;;;;4946396;29;20437;-91
2022/11/17 04:46:21;;;;;;;16.02;10.40;;;8.30;99.90;;;;;;4956471;28;20051;-86
2022/11/17 04:48:47;;;;;;;20.55;16.40;;;8.30;99.90;;;;;;4916138;29;20039;-87
2022/11/17 04:51:14;;;;;;;15.07;9.23;;;8.30;99.90;;;;;;4931153;28;20043;-87
2022/11/17 04:53:40;;;;;;;17.35;15.32;;;8.20;99.90;;;;;;4929361;29;20126;-86
2022/11/17 04:56:06;;;;;;;16.02;9.88;;;8.20;99.90;;;;;;4947906;28;20452;-88
2022/11/17 04:58:32;;;;;;;15.48;9.55;;;8.20;99.90;;;;;;4930881;29;20055;-90
2022/11/17 05:01:11;;;;;;;17.08;10.35;;;8.20;99.90;;;;;;4947168;28;20046;-85
2022/11/17 05:03:42;;;;;;;15.23;9.77;;;8.20;99.90;;;;;;4947594;28;20067;-89
2022/11/17 05:06:10;;;;;;;18.23;16.33;;;8.10;99.90;;;;;;4930943;29;20066;-89
2022/11/17 05:08:38;;;;;;;19.08;15.77;;;8.20;99.90;;;;;;4945274;29;20040;-86
2022/11/17 05:13:50;;;;;;;18.65;15.55;;;8.20;99.90;;;;;;4950304;28;20063;-88
2022/11/17 05:19:02;;;;;;;13.98;8.43;;;8.10;99.90;;;;;;4942994;29;20121;-91
2022/11/17 05:21:28;;;;;;;13.88;9.50;;;8.10;99.90;;;;;;4938779;29;20343;-86
2022/11/17 05:23:54;;;;;;;13.82;9.05;;;8.00;99.90;;;;;;4935865;29;20101;-87
2022/11/17 05:26:25;;;;;;;14.23;9.35;;;8.00;99.90;;;;;;4951044;28;20475;-88
2022/11/17 05:28:51;;;;;;;17.92;14.73;;;8.00;99.90;;;;;;4934336;29;20047;-88
2022/11/17 05:31:17;;;;;;;16.83;14.70;;;8.00;99.90;;;;;;4951260;29;20126;-88
2022/11/17 05:33:43;;;;;;;15.38;8.77;;;8.00;99.90;;;;;;4965664;28;20094;-91
2022/11/17 05:36:10;;;;;;;13.32;6.28;;;8.00;99.90;;;;;;4934640;28;20373;-90
2022/11/17 05:38:35;;;;;;;13.85;9.02;;;8.00;99.90;;;;;;4956351;28;20058;-90
2022/11/17 05:41:01;;;;;;;16.30;14.13;;;7.90;99.90;;;;;;4952423;29;20047;-89
2022/11/17 05:43:27;;;;;;;13.88;7.22;;;8.00;99.90;;;;;;4935697;29;20055;-88
2022/11/17 05:45:53;;;;;;;12.73;6.63;;;7.90;99.90;;;;;;4940433;29;20047;-88
2022/11/17 05:48:18;;;;;;;13.32;7.63;;;7.80;99.90;;;;;;4955488;28;20046;-88
2022/11/17 05:50:44;;;;;;;17.23;13.73;;;7.80;99.90;;;;;;4938018;29;20453;-86
2022/11/17 05:53:10;;;;;;;16.35;13.63;;;7.80;99.90;;;;;;4951867;29;20043;-88
2022/11/17 05:55:35;;;;;;;12.85;7.57;;;7.90;99.90;;;;;;4952246;29;20122;-89
2022/11/17 05:58:08;;;;;;;12.38;7.28;;;7.80;99.90;;;;;;4919210;28;20043;-88
2022/11/17 06:00:37;;;;;;;12.45;6.40;;;7.80;99.90;;;;;;4951402;29;20075;-87
2022/11/17 06:03:13;;;;;;;17.02;14.40;;;7.70;99.90;;;;;;4932327;29;20043;-87
2022/11/17 06:05:38;;;;;;;11.80;6.68;;;7.80;99.90;;;;;;4934125;29;20122;-86
2022/11/17 06:08:05;;;;;;;15.45;12.90;;;7.70;99.90;;;;;;4949246;29;20291;-89
2022/11/17 06:10:32;;;;;;;15.98;13.50;;;7.70;99.90;;;;;;4934109;29;20058;-88
2022/11/17 06:12:58;;;;;;;12.70;7.55;;;7.70;99.90;;;;;;4951214;29;20043;-88
2022/11/17 06:15:24;;;;;;;15.32;12.95;;;7.70;99.90;;;;;;4951619;29;20036;-92
2022/11/17 06:18:01;;;;;;;11.88;6.82;;;7.70;99.90;;;;;;4932693;29;20038;-87
2022/11/17 06:20:44;;;;;;;12.85;7.20;;;7.60;99.90;;;;;;4951452;29;20063;-92
2022/11/17 06:23:10;;;;;;;12.43;6.45;;;7.60;99.90;;;;;;4933794;29;20482;-90
2022/11/17 06:25:37;;;;;;;13.80;7.35;;;7.50;99.90;;;;;;4951279;28;20044;-86
2022/11/17 06:28:07;;;;;;;12.65;7.82;;;7.50;99.90;;;;;;4952467;28;20047;-86
2022/11/17 06:30:34;;;;;;;14.07;8.32;;;7.50;99.90;;;;;;4948513;28;20506;-87
2022/11/17 06:33:01;;;;;;;13.15;7.18;;;7.60;99.90;;;;;;4932846;29;20459;-88
2022/11/17 06:35:32;;;;;;;12.65;7.70;;;7.50;99.90;;;;;;4933285;29;20039;-87
2022/11/17 06:37:58;;;;;;;14.05;7.93;;;7.50;99.90;;;;;;4933861;29;20065;-91
2022/11/17 06:40:24;;;;;;;15.10;12.85;;;7.50;99.90;;;;;;4933915;29;20380;-89
2022/11/17 06:43:08;;;;;;;12.43;6.50;;;7.60;99.90;;;;;;4948935;28;20046;-85
2022/11/17 06:45:41;;;;;;;12.52;6.38;;;7.50;99.90;;;;;;4947796;28;20043;-85
2022/11/17 06:48:07;;;;;;;10.70;5.65;;;7.50;99.90;;;;;;4933501;29;20047;-88
2022/11/17 06:50:34;;;;;;;14.68;12.85;;;7.50;99.90;;;;;;4936200;29;20039;-89
2022/11/17 06:53:02;;;;;;;11.40;6.80;;;7.50;99.90;;;;;;4953556;29;20047;-86
2022/11/17 06:55:28;;;;;;;11.18;6.47;;;7.50;99.90;;;;;;4936054;29;20097;-89
2022/11/17 06:57:59;;;;;;;12.40;6.10;;;7.40;99.90;;;;;;4951219;28;20035;-92
2022/11/17 07:00:25;;;;;;;10.57;5.72;;;7.50;99.90;;;;;;4928586;29;20043;-89
2022/11/17 07:02:51;;;;;;;12.00;7.03;;;7.40;99.90;;;;;;4948232;28;20091;-90
2022/11/17 07:05:17;;;;;;;11.98;7.47;;;7.40;99.90;;;;;;4947644;28;20074;-85
2022/11/17 07:07:42;;;;;;;14.95;12.38;;;7.50;99.90;;;;;;4945889;28;20058;-85
2022/11/17 07:10:08;;;;;;;12.07;7.07;;;7.50;99.90;;;;;;4934580;28;20471;-86
2022/11/17 07:12:34;;;;;;;10.75;5.97;;;7.50;99.90;;;;;;4933960;29;20041;-88
2022/11/17 07:15:00;;;;;;;10.52;6.20;;;7.40;99.90;;;;;;4934360;29;20039;-92
2022/11/17 07:17:25;;;;;;;11.32;6.43;;;7.40;99.90;;;;;;4934698;29;20035;-89
2022/11/17 07:19:53;;;;;;;10.15;5.80;;;7.50;99.90;;;;;;4933391;29;20042;-87
2022/11/17 07:22:19;;;;;;;11.00;6.70;;;7.40;99.90;;;;;;4934977;29;20058;-91
2022/11/17 07:24:44;;;;;;;11.10;5.68;;;7.50;99.90;;;;;;4933900;29;20059;-89
2022/11/17 07:27:10;;;;;;;10.88;5.88;;;7.40;99.90;;;;;;4956112;28;20120;-91
2022/11/17 07:29:35;;;;;;;11.20;5.90;;;7.50;99.90;;;;;;4952228;28;20034;-93
2022/11/17 07:32:01;;;;;;;11.88;5.80;;;7.40;99.90;;;;;;4935943;29;20082;-87
2022/11/17 07:34:26;;;;;;;13.57;10.90;;;7.40;99.90;;;;;;4931829;29;20559;-89
2022/11/17 07:36:52;;;;;;;11.43;5.97;;;7.50;99.90;;;;;;4949810;28;20054;-92
2022/11/17 07:39:18;;;;;;;12.05;6.95;;;7.50;99.90;;;;;;4937556;28;20090;-92
2022/11/17 07:41:43;;;;;;;10.98;6.20;;;7.50;99.90;;;;;;4929601;29;20093;-87
2022/11/17 07:44:10;;;;;;;14.38;11.85;;;7.50;99.90;;;;;;4931094;29;20050;-92
2022/11/17 07:46:36;;;;;;;12.35;6.18;;;7.60;99.90;;;;;;4948278;28;20136;-89
2022/11/17 07:49:02;;;;;;;10.25;6.38;;;7.50;99.90;;;;;;4933022;29;20159;-89
2022/11/17 07:51:27;;;;;;;9.95;5.13;;;7.50;99.90;;;;;;4932951;29;20480;-90
2022/11/17 07:53:53;;;;;;;10.73;6.03;;;7.50;99.90;;;;;;4947392;29;20075;-89
2022/11/17 07:56:19;;;;;;;9.00;4.68;;;7.50;99.90;;;;;;4950122;28;20127;-90
2022/11/17 07:58:44;;;;;;;10.90;6.47;;;7.50;99.90;;;;;;4931024;29;20109;-87
2022/11/17 08:01:14;;;;;;;14.05;11.48;;;7.50;99.90;;;;;;4932786;29;20403;-93
2022/11/17 08:03:40;;;;;;;9.75;5.00;;;7.50;99.90;;;;;;4952257;29;20407;-90
2022/11/17 08:06:06;;;;;;;10.45;5.32;;;7.50;99.90;;;;;;4972999;28;20038;-91
2022/11/17 08:08:33;;;;;;;14.23;12.70;;;7.50;99.90;;;;;;4958101;28;20043;-88
2022/11/17 08:11:07;;;;;;;11.38;5.75;;;7.60;99.90;;;;;;4950323;29;20093;-93
2022/11/17 08:13:33;;;;;;;11.98;6.63;;;7.50;99.90;;;;;;4950116;29;20043;-89
2022/11/17 08:15:59;;;;;;;14.02;12.30;;;7.50;99.90;;;;;;4950464;29;20055;-94
2022/11/17 08:18:25;;;;;;;11.20;6.55;;;7.60;99.90;;;;;;4919883;29;20427;-94
2022/11/17 08:20:51;;;;;;;12.60;7.53;;;7.50;99.90;;;;;;4935672;29;20051;-94
2022/11/17 08:23:17;;;;;;;11.48;6.82;;;7.50;99.90;;;;;;4921626;29;20047;-92
2022/11/17 08:25:43;;;;;;;12.10;6.45;;;7.50;99.90;;;;;;4947009;29;20125;-92
2022/11/17 08:28:08;;;;;;;11.65;6.68;;;7.50;99.90;;;;;;4933851;29;20467;-93
2022/11/17 08:30:34;;;;;;;11.50;6.30;;;7.50;99.90;;;;;;4917035;29;20074;-88
2022/11/17 08:33:00;;;;;;;15.85;13.38;;;7.50;99.90;;;;;;4932370;29;20035;-90
2022/11/17 08:35:26;;;;;;;13.13;8.85;;;7.60;99.90;;;;;;4933743;29;20040;-92
2022/11/17 08:37:52;;;;;;;12.23;7.57;;;7.60;99.90;;;;;;4933514;29;20042;-89
2022/11/17 08:40:19;;;;;;;12.13;7.85;;;7.50;99.90;;;;;;4952051;29;20047;-94
2022/11/17 08:42:45;;;;;;;11.73;7.25;;;7.50;99.90;;;;;;4952195;28;20075;-89
2022/11/17 08:45:11;;;;;;;10.50;6.47;;;7.50;99.90;;;;;;4959207;28;20129;-94
2022/11/17 08:47:38;;;;;;;14.77;12.35;;;7.50;99.90;;;;;;4951896;28;20070;-87
2022/11/17 08:50:06;;;;;;;13.00;7.85;;;7.60;99.90;;;;;;4938491;28;20055;-90
2022/11/17 08:52:31;;;;;;;11.32;5.95;;;7.60;99.90;;;;;;4919774;29;20046;-94
2022/11/17 08:54:57;;;;;;;12.93;7.80;;;7.60;99.90;;;;;;4936925;29;20039;-90
2022/11/17 08:57:23;;;;;;;13.02;7.90;;;7.60;99.90;;;;;;4953668;28;20126;-93
2022/11/17 08:59:49;;;;;;;12.55;8.07;;;7.60;99.90;;;;;;4938435;29;20134;-90
2022/11/17 09:02:15;;;;;;;11.77;7.15;;;7.60;99.90;;;;;;4936142;28;20047;-91
2022/11/17 09:04:41;;;;;;;11.90;6.95;;;7.60;99.90;;;;;;4953330;28;20420;-89
2022/11/17 09:07:06;;;;;;;13.63;11.68;;;7.60;99.90;;;;;;4938999;29;20063;-93
2022/11/17 09:09:32;;;;;;;11.23;7.43;;;7.70;99.90;;;;;;4953794;28;20059;-93
2022/11/17 09:11:59;;;;;;;10.18;6.07;;;7.60;99.90;;;;;;4937455;29;20043;-88
2022/11/17 09:14:24;;;;;;;12.70;8.32;;;7.60;99.90;;;;;;4951993;29;20043;-90
2022/11/17 09:16:50;;;;;;;15.95;12.48;;;7.70;99.90;;;;;;4949661;28;20046;-94
2022/11/17 09:19:17;;;;;;;12.48;7.43;;;7.70;99.90;;;;;;4957852;29;20035;-92
2022/11/17 09:21:42;;;;;;;11.40;6.57;;;7.70;99.90;;;;;;4953418;28;20051;-87
2022/11/17 09:24:08;;;;;;;14.60;12.32;;;7.70;99.90;;;;;;4952769;28;20481;-93
2022/11/17 09:26:34;;;;;;;10.73;6.68;;;7.70;99.90;;;;;;4921482;29;20065;-95
2022/11/17 09:29:03;;;;;;;11.43;7.38;;;7.70;99.90;;;;;;4922192;29;20090;-92
2022/11/17 09:31:29;;;;;;;13.88;12.02;;;7.70;99.90;;;;;;4960306;29;20046;-90
2022/11/17 09:33:55;;;;;;;11.52;7.00;;;7.80;99.90;;;;;;4967571;28;20051;-92
2022/11/17 09:36:21;;;;;;;12.27;7.30;;;7.70;99.90;;;;;;4922504;29;20090;-90
2022/11/17 09:38:47;;;;;;;11.80;7.25;;;7.70;99.90;;;;;;4956107;28;20128;-91
2022/11/17 09:41:21;;;;;;;13.50;11.32;;;7.70;99.90;;;;;;4926861;29;20103;-93
2022/11/17 09:44:08;;;;;;;11.02;6.75;;;7.80;99.90;;;;;;4953869;28;20046;-93
2022/11/17 09:46:59;;;;;;;9.93;5.18;;;7.80;99.90;;;;;;4956210;28;21407;-93
2022/11/17 09:49:46;;;;;;;10.18;5.45;;;7.80;99.90;;;;;;4920654;29;20057;-92
2022/11/17 09:52:54;;;;;;;12.00;10.63;;;7.80;99.90;;;;;;4952163;29;20160;-90
2022/11/17 09:55:23;;;;;;;11.73;6.88;;;7.80;99.90;;;;;;4911250;29;20055;-93
2022/11/17 09:58:17;;;;;;;10.73;6.53;;;7.80;99.90;;;;;;4958580;28;20396;-94
2022/11/17 10:00:47;;;;;;;10.35;6.63;;;7.80;99.90;;;;;;4922869;29;20047;-94
2022/11/17 10:03:21;;;;;;;11.02;6.60;;;7.90;99.90;;;;;;4927771;29;20035;-93
2022/11/17 10:05:47;;;;;;;11.20;6.25;;;7.90;99.90;;;;;;4951195;29;20039;-96
2022/11/17 10:08:30;;;;;;;13.50;11.40;;;8.00;99.90;;;;;;4952996;29;20335;-94
2022/11/17 10:10:56;;;;;;;14.32;11.18;;;8.00;99.90;;;;;;4968330;28;20179;-94
2022/11/17 10:13:31;;;;;;;11.02;6.55;;;8.10;99.90;;;;;;4932613;29;20068;-95
2022/11/17 10:16:04;;;;;;;11.85;10.07;;;8.10;99.90;;;;;;4944061;29;20035;-96
2022/11/17 10:18:34;;;;;;;12.55;10.07;;;8.10;99.90;;;;;;4942580;29;20045;-90
2022/11/17 10:21:00;;;;;;;13.13;10.70;;;8.10;99.90;;;;;;4937242;29;20035;-92
2022/11/17 10:23:53;;;;;;;11.75;7.40;;;8.00;99.90;;;;;;4935869;29;20156;-92
2022/11/17 10:26:18;;;;;;;14.10;10.70;;;8.00;99.90;;;;;;4945923;29;20051;-94
2022/11/17 10:28:44;;;;;;;13.32;9.55;;;8.00;99.90;;;;;;4918735;29;20039;-90
2022/11/17 10:31:14;;;;;;;10.00;5.88;;;8.10;99.90;;;;;;4920368;29;20043;-92
2022/11/17 10:33:45;;;;;;;12.50;11.02;;;8.00;99.90;;;;;;4938327;28;20043;-92
2022/11/17 10:36:21;;;;;;;9.70;5.53;;;8.10;99.90;;;;;;4935811;29;20055;-93
2022/11/17 10:38:53;;;;;;;10.18;6.90;;;8.00;99.90;;;;;;4918853;29;20043;-92
2022/11/17 10:41:40;;;;;;;15.32;11.82;;;8.10;99.90;;;;;;4936891;29;20101;-93
2022/11/17 10:44:19;;;;;;;10.27;6.63;;;8.10;99.90;;;;;;4937933;29;20483;-95
2022/11/17 10:47:03;;;;;;;12.15;10.52;;;8.20;99.90;;;;;;4943972;29;20047;-90
2022/11/17 10:49:38;;;;;;;9.52;6.63;;;8.30;99.90;;;;;;4938742;29;20043;-91
2022/11/17 10:52:08;;;;;;;11.32;6.63;;;8.30;99.90;;;;;;4932216;28;20043;-90
2022/11/17 10:54:34;;;;;;;9.82;5.70;;;8.30;99.90;;;;;;4951295;29;20054;-91
2022/11/17 10:57:04;;;;;;;11.85;10.38;;;8.30;99.90;;;;;;4920340;29;20086;-93
2022/11/17 10:59:32;;;;;;;11.18;9.98;;;8.30;99.90;;;;;;4938414;29;20050;-90
2022/11/17 11:02:20;;;;;;;9.45;5.65;;;8.30;99.90;;;;;;4953911;28;20039;-93
2022/11/17 11:04:46;;;;;;;7.80;4.13;;;8.30;99.90;;;;;;4931281;29;20051;-93
2022/11/17 11:07:21;;;;;;;8.75;5.40;;;8.30;99.90;;;;;;4955367;29;20066;-94
2022/11/17 11:09:50;;;;;;;11.75;8.90;;;8.20;99.90;;;;;;4935105;29;20433;-91
2022/11/17 11:12:23;;;;;;;10.68;8.70;;;8.30;99.90;;;;;;4916274;29;20102;-91
2022/11/17 11:14:52;;;;;;;11.50;9.55;;;8.40;99.90;;;;;;4953014;29;20039;-93
2022/11/17 11:17:19;;;;;;;9.77;7.85;;;8.40;99.90;;;;;;4965639;28;20039;-91
2022/11/17 11:19:51;;;;;;;11.75;8.80;;;8.40;99.90;;;;;;4920532;29;20095;-93
2022/11/17 11:22:26;;;;;;;9.07;7.32;;;8.40;99.90;;;;;;4963928;28;20789;-91
2022/11/17 11:25:28;;;;;;;10.85;8.18;;;8.40;99.90;;;;;;4941216;29;20049;-91
2022/11/17 11:28:28;;;;;;;11.20;8.40;;;8.50;99.90;;;;;;4960814;28;20046;-93
2022/11/17 11:31:12;;;;;;;8.40;5.30;;;8.50;99.90;;;;;;4953772;28;20054;-96
2022/11/17 11:33:43;;;;;;;9.10;5.63;;;8.40;99.90;;;;;;4931639;28;20102;-89
2022/11/17 11:36:35;;;;;;;7.75;4.82;;;8.40;99.90;;;;;;4953775;28;20315;-95
2022/11/17 11:39:11;;;;;;;9.55;5.43;;;8.40;99.90;;;;;;4921589;29;20129;-92
2022/11/17 11:42:01;;;;;;;8.25;4.85;;;8.40;99.90;;;;;;4941338;29;20047;-94
2022/11/17 11:44:26;;;;;;;12.00;9.98;;;8.50;99.90;;;;;;4935799;29;20039;-95
2022/11/17 11:47:23;;;;;;;10.00;8.43;;;8.60;99.90;;;;;;4943967;29;20046;-93
2022/11/17 11:50:02;;;;;;;11.13;8.85;;;8.60;99.90;;;;;;4915184;29;20054;-95
2022/11/17 11:52:33;;;;;;;10.05;8.45;;;8.60;99.90;;;;;;4935267;29;20047;-93
2022/11/17 11:55:13;;;;;;;11.30;8.23;;;8.70;99.90;;;;;;4923615;29;20050;-96
2022/11/17 11:57:47;;;;;;;12.07;8.98;;;8.70;99.90;;;;;;4936453;28;20031;-94
2022/11/17 12:00:15;;;;;;;12.90;9.55;;;8.70;99.90;;;;;;4923057;29;20441;-94
2022/11/17 12:02:50;;;;;;;8.70;6.10;;;8.70;99.90;;;;;;4932843;28;20818;-95
2022/11/17 12:05:27;;;;;;;9.50;5.80;;;8.70;99.90;;;;;;4951266;29;20047;-93
2022/11/17 12:08:04;;;;;;;9.45;5.57;;;8.70;99.90;;;;;;4940145;29;20499;-94
2022/11/17 12:10:39;;;;;;;12.98;9.77;;;8.70;99.90;;;;;;4957757;28;20042;-96
2022/11/17 12:13:10;;;;;;;12.55;9.80;;;8.80;99.90;;;;;;4940869;29;20122;-94
2022/11/17 12:15:36;;;;;;;11.38;6.38;;;8.90;99.90;;;;;;4951822;28;20357;-95
2022/11/17 12:18:17;;;;;;;13.48;10.50;;;8.90;99.90;;;;;;4940029;29;20042;-95
2022/11/17 12:20:45;;;;;;;9.15;6.50;;;9.00;99.90;;;;;;4945967;29;20043;-95
2022/11/17 12:23:19;;;;;;;12.35;10.05;;;9.00;99.90;;;;;;4957317;28;20396;-95
2022/11/17 12:25:47;;;;;;;12.55;10.25;;;9.10;99.90;;;;;;4938028;29;20063;-93
2022/11/17 12:28:25;;;;;;;12.15;10.02;;;9.10;99.90;;;;;;4936367;29;20049;-94
2022/11/17 12:30:52;;;;;;;12.27;9.63;;;9.30;99.90;;;;;;4965528;28;20055;-93
2022/11/17 12:33:18;;;;;;;11.43;9.70;;;9.40;99.90;;;;;;4937173;29;20043;-92
2022/11/17 12:35:44;;;;;;;13.50;10.43;;;9.50;99.90;;;;;;4920793;29;20130;-92
2022/11/17 12:38:13;;;;;;;16.85;12.15;;;9.50;99.90;;;;;;4953662;29;20107;-91
2022/11/17 12:40:38;;;;;;;12.02;10.27;;;9.60;99.90;;;;;;4949325;29;20047;-94
2022/11/17 12:43:24;;;;;;;13.00;10.18;;;9.60;99.90;;;;;;4956201;29;20074;-91
2022/11/17 12:45:53;;;;;;;15.75;10.55;;;9.60;99.90;;;;;;4963704;28;20614;-91
2022/11/17 12:48:21;;;;;;;12.20;9.40;;;9.70;99.90;;;;;;4937216;29;20536;-90
2022/11/17 12:51:10;;;;;;;12.07;9.70;;;9.70;99.90;;;;;;4935137;29;20043;-94
2022/11/17 12:54:14;;;;;;;12.80;9.82;;;9.80;99.90;;;;;;4936342;29;20035;-91
2022/11/17 12:56:48;;;;;;;17.23;10.77;;;9.80;99.90;;;;;;4940318;29;20039;-93
2022/11/17 12:59:32;;;;;;;12.20;9.07;;;9.80;99.90;;;;;;4919649;28;20050;-93
2022/11/17 13:02:27;;;;;;;12.93;9.07;;;9.90;99.90;;;;;;4935857;29;20051;-92
2022/11/17 13:05:13;;;;;;;12.13;8.82;;;9.90;99.90;;;;;;4935537;29;20147;-94
2022/11/17 13:07:38;;;;;;;9.85;5.10;;;9.90;99.90;;;;;;4933450;29;20079;-92
2022/11/17 13:10:04;;;;;;;8.82;4.68;;;9.90;99.90;;;;;;4952283;29;20086;-91
2022/11/17 13:12:32;;;;;;;13.48;9.25;;;9.90;99.90;;;;;;4957640;28;20465;-92
2022/11/17 13:15:01;;;;;;;12.35;7.55;;;10.00;99.90;;;;;;4950415;28;20035;-92
2022/11/17 13:17:28;;;;;;;11.15;7.00;;;10.00;99.90;;;;;;4932080;29;20039;-92
2022/11/17 13:20:00;;;;;;;12.38;7.40;;;10.10;99.90;;;;;;4952695;29;20500;-92
2022/11/17 13:22:26;;;;;;;13.00;9.15;;;10.10;99.90;;;;;;4930602;28;20047;-92
2022/11/17 13:24:52;;;;;;;15.43;10.40;;;10.10;99.90;;;;;;4932486;29;20046;-93
2022/11/17 13:27:25;;;;;;;12.20;9.80;;;10.10;99.90;;;;;;4920643;29;20043;-92
2022/11/17 13:30:10;;;;;;;14.77;10.43;;;10.10;99.90;;;;;;4952805;29;20098;-90